Time;durP1;ratioP1;P1;durP2;ratioP2;P2;SDS_P1;SDS_P2;PMS_P1;PMS_P2;Temp;Humidity;BMP_temperature;BMP_pressure;BME280_temperature;BME280_humidity;BME280_pressure;Samples;Min_cycle;Max_cycle;Signal;HPM_P1;HPM_P2
2022/09/03 00:00:19;;;;;;;9.55;2.92;;;;;;;13.81;100.00;100424.44;5590766;31;34643;-68
2022/09/03 00:03:42;;;;;;;5.53;3.00;;;;;;;13.74;100.00;100431.56;5590813;31;35173;-68
2022/09/03 00:06:53;;;;;;;6.65;2.90;;;;;;;13.70;100.00;100433.75;5590688;31;35214;-69
2022/09/03 00:10:01;;;;;;;5.87;3.05;;;;;;;13.60;100.00;100422.56;5590828;31;33921;-68
2022/09/03 00:13:07;;;;;;;5.85;3.30;;;;;;;13.57;100.00;100427.44;5589964;31;34591;-68
2022/09/03 00:16:16;;;;;;;7.70;3.08;;;;;;;13.51;100.00;100433.53;5590508;31;34303;-68
2022/09/03 00:19:30;;;;;;;5.12;2.90;;;;;;;13.48;100.00;100427.53;5589876;31;33251;-68
2022/09/03 00:22:41;;;;;;;5.45;3.20;;;;;;;13.43;100.00;100431.75;5590522;31;34568;-68
2022/09/03 00:25:58;;;;;;;4.53;3.05;;;;;;;13.40;100.00;100427.66;5590538;31;33996;-68
2022/09/03 00:29:27;;;;;;;6.53;3.37;;;;;;;13.34;100.00;100430.22;5590234;31;34625;-68
2022/09/03 00:32:46;;;;;;;6.97;3.22;;;;;;;13.31;100.00;100419.94;5590469;31;34077;-68
2022/09/03 00:36:02;;;;;;;5.25;3.28;;;;;;;13.31;100.00;100425.25;5590342;31;33957;-68
2022/09/03 00:39:06;;;;;;;5.40;3.10;;;;;;;13.28;100.00;100431.75;5590357;31;33947;-68
2022/09/03 00:42:27;;;;;;;5.97;2.92;;;;;;;13.21;100.00;100425.53;5590373;31;34629;-68
2022/09/03 00:45:40;;;;;;;8.25;3.03;;;;;;;13.23;100.00;100433.31;5589295;31;31402;-68
2022/09/03 00:49:13;;;;;;;9.93;3.42;;;;;;;13.18;100.00;100433.03;5589449;31;34190;-68
2022/09/03 00:52:44;;;;;;;4.30;2.95;;;;;;;13.16;100.00;100435.91;5590444;31;34048;-68
2022/09/03 00:55:57;;;;;;;5.65;3.10;;;;;;;13.13;100.00;100438.09;5590271;31;35311;-68
2022/09/03 00:59:09;;;;;;;5.68;3.40;;;;;;;13.19;100.00;100430.22;5590152;31;34301;-68
2022/09/03 01:02:46;;;;;;;5.80;3.30;;;;;;;13.30;100.00;100429.75;5590570;31;33907;-67
2022/09/03 01:06:10;;;;;;;8.50;3.12;;;;;;;13.20;100.00;100436.38;5590209;31;34722;-67
2022/09/03 01:09:22;;;;;;;6.93;3.47;;;;;;;13.20;100.00;100431.03;5589517;31;33958;-67
2022/09/03 01:12:41;;;;;;;8.38;3.40;;;;;;;13.10;100.00;100433.94;5589403;31;33874;-67
2022/09/03 01:15:55;;;;;;;6.63;2.90;;;;;;;13.09;100.00;100437.59;5590190;31;34423;-67
2022/09/03 01:19:36;;;;;;;9.40;3.60;;;;;;;13.02;100.00;100445.47;5589964;31;34082;-67
2022/09/03 01:22:57;;;;;;;6.20;3.25;;;;;;;13.00;100.00;100444.84;5590249;31;35434;-67
2022/09/03 01:26:21;;;;;;;4.70;3.20;;;;;;;12.99;100.00;100451.19;5590031;31;33879;-68
2022/09/03 01:29:34;;;;;;;5.90;3.12;;;;;;;12.95;100.00;100447.25;5589749;31;35278;-68
2022/09/03 01:32:59;;;;;;;4.50;3.00;;;;;;;12.92;100.00;100450.28;5590004;31;33810;-68
2022/09/03 01:36:27;;;;;;;7.75;3.40;;;;;;;12.90;100.00;100457.59;5589434;31;33915;-68
2022/09/03 01:39:53;;;;;;;6.40;3.53;;;;;;;12.87;100.00;100450.00;5589960;31;34675;-68
2022/09/03 01:43:05;;;;;;;7.30;3.22;;;;;;;12.84;100.00;100454.81;5589737;31;35284;-68
2022/09/03 01:46:15;;;;;;;7.20;3.28;;;;;;;12.83;100.00;100454.00;5589054;31;33970;-68
2022/09/03 01:49:33;;;;;;;6.57;3.25;;;;;;;12.79;100.00;100454.53;5589784;31;34664;-68
2022/09/03 01:52:40;;;;;;;7.03;3.35;;;;;;;12.77;100.00;100456.56;5590139;31;33361;-68
2022/09/03 01:55:46;;;;;;;5.60;3.40;;;;;;;12.76;100.00;100449.59;5589634;31;34203;-68
2022/09/03 01:58:59;;;;;;;11.12;3.70;;;;;;;12.75;100.00;100456.75;5589659;31;33884;-67
2022/09/03 02:02:08;;;;;;;6.30;3.10;;;;;;;12.75;100.00;100461.22;5589643;31;34406;-68
2022/09/03 02:05:13;;;;;;;8.25;3.83;;;;;;;12.72;100.00;100458.94;5589224;31;33985;-68
2022/09/03 02:08:16;;;;;;;5.37;3.60;;;;;;;12.91;100.00;100458.44;5589726;31;34026;-68
2022/09/03 02:11:19;;;;;;;5.95;3.45;;;;;;;12.95;100.00;100460.56;5588897;31;33899;-68
2022/09/03 02:14:25;;;;;;;6.25;3.08;;;;;;;12.84;100.00;100457.50;5589593;31;33932;-68
2022/09/03 02:17:27;;;;;;;4.25;3.12;;;;;;;12.76;100.00;100465.56;5589523;31;34573;-68
2022/09/03 02:20:31;;;;;;;7.12;3.25;;;;;;;12.67;100.00;100458.66;5589445;31;35198;-68
2022/09/03 02:23:34;;;;;;;6.22;3.62;;;;;;;12.58;100.00;100466.72;5589505;31;34561;-68
2022/09/03 02:26:36;;;;;;;6.72;3.22;;;;;;;12.50;100.00;100458.78;5589374;31;34117;-68
2022/09/03 02:29:39;;;;;;;6.35;3.50;;;;;;;12.47;100.00;100466.28;5589543;31;33977;-69
2022/09/03 02:32:43;;;;;;;8.85;3.17;;;;;;;12.48;100.00;100471.44;5589281;31;33979;-68
2022/09/03 02:35:46;;;;;;;5.60;3.30;;;;;;;12.53;100.00;100463.75;5589421;31;33967;-68
2022/09/03 02:38:49;;;;;;;6.47;3.20;;;;;;;12.56;100.00;100458.06;5589339;31;33941;-68
2022/09/03 02:41:56;;;;;;;7.18;3.20;;;;;;;12.49;100.00;100458.97;5589576;31;33889;-68
2022/09/03 02:45:13;;;;;;;8.48;3.37;;;;;;;12.44;100.00;100466.66;5588653;31;35210;-68
2022/09/03 02:48:21;;;;;;;6.57;3.20;;;;;;;12.36;100.00;100464.03;5588921;31;34031;-68
2022/09/03 02:51:24;;;;;;;5.68;3.37;;;;;;;12.39;100.00;100463.69;5589086;31;34726;-68
2022/09/03 02:54:28;;;;;;;6.65;3.37;;;;;;;12.38;100.00;100470.03;5589118;31;34057;-68
2022/09/03 02:57:31;;;;;;;6.85;3.20;;;;;;;12.34;100.00;100466.91;5588987;31;34606;-68
2022/09/03 03:00:35;;;;;;;6.25;3.22;;;;;;;12.37;100.00;100468.34;5588882;31;34012;-68
2022/09/03 03:03:38;;;;;;;10.02;3.60;;;;;;;12.36;100.00;100474.69;5588162;31;34079;-67
2022/09/03 03:06:41;;;;;;;7.28;3.97;;;;;;;12.27;100.00;100468.59;5588077;31;34315;-67
2022/09/03 03:09:49;;;;;;;7.12;3.67;;;;;;;12.18;100.00;100473.12;5588811;31;35306;-67
2022/09/03 03:12:51;;;;;;;5.70;3.85;;;;;;;12.17;100.00;100471.47;5588157;31;32597;-68
2022/09/03 03:16:02;;;;;;;5.22;3.55;;;;;;;12.12;100.00;100467.69;5588976;31;33968;-68
2022/09/03 03:19:05;;;;;;;7.35;3.67;;;;;;;12.08;100.00;100469.03;5587755;31;33973;-68
2022/09/03 03:22:08;;;;;;;7.80;3.30;;;;;;;12.06;100.00;100468.38;5588527;31;33945;-68
2022/09/03 03:25:10;;;;;;;7.07;3.53;;;;;;;12.06;100.00;100474.53;5588888;31;34192;-68
2022/09/03 03:28:13;;;;;;;8.45;3.35;;;;;;;12.03;100.00;100472.22;5588227;31;34289;-68
2022/09/03 03:31:21;;;;;;;7.32;3.95;;;;;;;12.02;100.00;100480.38;5588393;31;34079;-68
2022/09/03 03:34:24;;;;;;;9.45;3.75;;;;;;;12.01;100.00;100481.37;5588352;31;34267;-68
2022/09/03 03:37:26;;;;;;;7.22;3.80;;;;;;;11.97;100.00;100483.56;5587703;31;33312;-69
2022/09/03 03:40:30;;;;;;;7.45;3.58;;;;;;;11.97;100.00;100494.19;5588281;31;34019;-69
2022/09/03 03:43:32;;;;;;;7.65;4.03;;;;;;;11.98;100.00;100485.22;5588250;31;34634;-68
2022/09/03 03:46:37;;;;;;;7.10;3.62;;;;;;;11.97;100.00;100485.38;5588179;31;34597;-69
2022/09/03 03:49:40;;;;;;;11.98;3.85;;;;;;;11.92;100.00;100491.22;5588177;31;33909;-68
2022/09/03 03:52:43;;;;;;;6.30;3.78;;;;;;;11.90;100.00;100492.41;5588389;31;35198;-68
2022/09/03 03:56:00;;;;;;;5.82;3.58;;;;;;;11.88;100.00;100497.06;5587959;31;34359;-68
2022/09/03 03:59:03;;;;;;;6.18;3.50;;;;;;;11.86;100.00;100489.25;5589496;31;34527;-68
2022/09/03 04:02:06;;;;;;;6.03;3.72;;;;;;;11.89;100.00;100491.59;5591132;31;35141;-68
2022/09/03 04:05:09;;;;;;;10.50;3.40;;;;;;;11.87;100.00;100495.41;5590694;31;34542;-69
2022/09/03 04:08:12;;;;;;;5.50;3.42;;;;;;;11.85;100.00;100494.75;5591027;31;34808;-68
2022/09/03 04:11:18;;;;;;;7.68;3.87;;;;;;;11.82;100.00;100498.56;5590543;31;33199;-69
2022/09/03 04:14:21;;;;;;;7.37;3.15;;;;;;;11.82;100.00;100503.06;5590768;31;34139;-68
2022/09/03 04:17:24;;;;;;;7.47;3.50;;;;;;;11.85;100.00;100510.72;5590553;31;34438;-68
2022/09/03 04:20:26;;;;;;;8.45;4.05;;;;;;;11.83;100.00;100508.22;5590509;31;34611;-68
2022/09/03 04:23:34;;;;;;;6.50;3.72;;;;;;;11.83;100.00;100518.00;5590494;31;34011;-68
2022/09/03 04:26:37;;;;;;;9.30;4.30;;;;;;;11.85;100.00;100522.19;5590414;31;34396;-68
2022/09/03 04:29:40;;;;;;;7.15;3.90;;;;;;;11.86;100.00;100518.50;5590166;31;34229;-68
2022/09/03 04:32:53;;;;;;;5.85;3.85;;;;;;;11.89;100.00;100520.00;5589770;31;32285;-68
2022/09/03 04:36:10;;;;;;;8.95;3.95;;;;;;;11.91;100.00;100520.66;5590443;31;34609;-68
2022/09/03 04:39:14;;;;;;;12.45;4.18;;;;;;;11.96;100.00;100527.09;5589205;31;32336;-68
2022/09/03 04:42:16;;;;;;;9.38;3.60;;;;;;;12.02;100.00;100521.09;5590393;31;34024;-68
2022/09/03 04:45:19;;;;;;;5.47;3.85;;;;;;;12.09;100.00;100522.06;5589847;31;35210;-68
2022/09/03 04:48:22;;;;;;;6.85;4.05;;;;;;;12.17;100.00;100518.53;5590507;31;33855;-68
2022/09/03 04:51:27;;;;;;;5.82;3.55;;;;;;;12.26;100.00;100528.09;5589728;31;34563;-67
2022/09/03 04:54:30;;;;;;;6.68;3.95;;;;;;;12.37;100.00;100529.53;5590116;31;33969;-68
2022/09/03 04:57:36;;;;;;;6.78;3.83;;;;;;;12.50;100.00;100530.62;5590187;31;33923;-68
2022/09/03 05:00:39;;;;;;;11.02;4.00;;;;;;;12.67;100.00;100535.84;5589220;31;34659;-68
2022/09/03 05:03:42;;;;;;;7.15;4.00;;;;;;;12.92;100.00;100532.00;5590075;31;33957;-70
2022/09/03 05:06:45;;;;;;;9.65;4.40;;;;;;;13.05;100.00;100533.03;5589299;31;34050;-67
2022/09/03 05:09:48;;;;;;;5.68;3.53;;;;;;;13.13;100.00;100540.12;5589086;31;34657;-68
2022/09/03 05:13:03;;;;;;;6.32;3.50;;;;;;;13.27;100.00;100534.00;5589305;31;33995;-69
2022/09/03 05:16:11;;;;;;;7.32;3.75;;;;;;;13.37;100.00;100537.25;5590055;31;34237;-68
2022/09/03 05:19:15;;;;;;;7.62;3.87;;;;;;;13.45;100.00;100533.69;5590086;31;33983;-68
2022/09/03 05:22:20;;;;;;;7.45;3.95;;;;;;;13.56;100.00;100535.87;5576268;31;32593;-68
2022/09/03 05:25:23;;;;;;;7.82;3.90;;;;;;;13.67;100.00;100546.09;5589055;31;34582;-69
2022/09/03 05:28:27;;;;;;;9.80;4.20;;;;;;;13.80;100.00;100545.44;5589702;31;33812;-68
2022/09/03 05:31:30;;;;;;;7.93;3.92;;;;;;;13.92;100.00;100543.97;5589090;31;34812;-68
2022/09/03 05:34:33;;;;;;;6.12;3.50;;;;;;;13.94;100.00;100541.97;5590226;31;33942;-69
2022/09/03 05:37:36;;;;;;;7.45;3.53;;;;;;;13.97;100.00;100541.59;5589112;31;33956;-69
2022/09/03 05:40:40;;;;;;;6.97;3.95;;;;;;;14.05;100.00;100546.81;5588867;31;32289;-69
2022/09/03 05:43:43;;;;;;;7.55;4.15;;;;;;;14.17;100.00;100545.34;5589907;31;34048;-69
2022/09/03 05:46:46;;;;;;;7.53;3.83;;;;;;;14.23;100.00;100543.75;5588736;31;32411;-69
2022/09/03 05:49:48;;;;;;;5.35;3.97;;;;;;;14.38;100.00;100536.56;5589686;31;33878;-69
2022/09/03 05:52:51;;;;;;;6.62;3.70;;;;;;;14.48;100.00;100536.25;5589665;31;34341;-69
2022/09/03 05:55:59;;;;;;;7.32;3.78;;;;;;;14.60;100.00;100540.91;5589700;31;34657;-69
2022/09/03 05:59:07;;;;;;;7.45;4.00;;;;;;;14.75;100.00;100541.69;5589249;31;32773;-68
2022/09/03 06:02:10;;;;;;;8.90;4.03;;;;;;;14.91;100.00;100548.59;5575336;31;32625;-69
2022/09/03 06:05:15;;;;;;;5.97;4.43;;;;;;;14.94;100.00;100547.41;5588977;31;32454;-69
2022/09/03 06:08:19;;;;;;;7.37;4.15;;;;;;;15.09;100.00;100556.16;5588961;31;33280;-69
2022/09/03 06:11:26;;;;;;;9.32;4.47;;;;;;;15.26;100.00;100549.50;5589410;31;33878;-69
2022/09/03 06:14:29;;;;;;;8.32;4.40;;;;;;;15.39;100.00;100548.81;5589537;31;34700;-69
2022/09/03 06:17:32;;;;;;;9.55;4.70;;;;;;;15.56;100.00;100550.16;5589524;31;33950;-69
2022/09/03 06:20:35;;;;;;;7.07;4.43;;;;;;;15.64;100.00;100555.34;5575097;31;33388;-69
2022/09/03 06:23:39;;;;;;;8.40;4.50;;;;;;;15.78;98.92;100549.06;5575836;31;32674;-69
2022/09/03 06:26:48;;;;;;;9.60;4.70;;;;;;;15.93;97.08;100538.22;5589479;31;34016;-69
2022/09/03 06:29:50;;;;;;;10.27;4.87;;;;;;;16.14;96.60;100542.66;5588441;31;33903;-69
2022/09/03 06:32:53;;;;;;;8.82;4.78;;;;;;;16.42;94.51;100548.72;5589165;31;34939;-69
2022/09/03 06:35:58;;;;;;;7.70;5.28;;;;;;;16.62;92.30;100546.97;5588188;31;33103;-69
2022/09/03 06:39:01;;;;;;;7.68;5.25;;;;;;;16.79;92.18;100545.56;5588421;31;33955;-69
2022/09/03 06:42:04;;;;;;;7.95;5.40;;;;;;;17.29;88.58;100544.12;5588607;31;33968;-69
2022/09/03 06:45:08;;;;;;;13.90;5.35;;;;;;;18.11;84.51;100532.81;5588017;31;33038;-69
2022/09/03 06:48:13;;;;;;;7.45;4.78;;;;;;;18.98;78.25;100529.41;5589219;31;34717;-69
2022/09/03 06:51:21;;;;;;;6.37;4.40;;;;;;;19.72;74.44;100533.09;5588703;31;34789;-70
2022/09/03 06:54:24;;;;;;;9.30;4.45;;;;;;;20.34;70.93;100531.97;5588847;31;34279;-70
2022/09/03 06:57:26;;;;;;;6.62;4.15;;;;;;;20.93;69.13;100535.66;5588879;31;33930;-69
2022/09/03 07:00:29;;;;;;;7.35;3.87;;;;;;;21.52;64.95;100532.81;5588852;31;34374;-70
2022/09/03 07:03:38;;;;;;;6.80;3.90;;;;;;;21.93;63.40;100537.25;5587894;31;34069;-70
2022/09/03 07:06:41;;;;;;;5.55;3.50;;;;;;;22.75;59.62;100543.19;5587977;31;33966;-70
2022/09/03 07:09:44;;;;;;;8.75;3.83;;;;;;;22.79;56.65;100543.56;5588058;31;33754;-70
2022/09/03 07:12:50;;;;;;;6.18;4.15;;;;;;;23.46;54.51;100535.47;5589101;31;33886;-71
2022/09/03 07:16:03;;;;;;;9.35;3.90;;;;;;;24.10;53.72;100542.03;5588627;31;34661;-70
2022/09/03 07:19:08;;;;;;;6.47;3.92;;;;;;;24.79;51.43;100543.06;5588293;31;34317;-70
2022/09/03 07:22:10;;;;;;;4.72;3.67;;;;;;;25.18;50.14;100538.25;5588480;31;34680;-71
2022/09/03 07:25:13;;;;;;;7.95;3.75;;;;;;;24.48;51.75;100533.81;5587623;31;32617;-70
2022/09/03 07:28:16;;;;;;;5.20;3.25;;;;;;;25.16;49.47;100539.63;5588467;31;34800;-70
2022/09/03 07:31:24;;;;;;;8.68;3.83;;;;;;;25.18;48.41;100532.00;5587573;31;33947;-70
2022/09/03 07:34:27;;;;;;;8.93;3.50;;;;;;;26.18;45.95;100531.81;5590765;31;34550;-70
2022/09/03 07:37:30;;;;;;;9.15;3.33;;;;;;;25.61;46.86;100523.62;5590648;31;35051;-69
2022/09/03 07:40:33;;;;;;;9.02;3.80;;;;;;;24.48;49.59;100528.37;5590331;31;34150;-69
2022/09/03 07:43:42;;;;;;;5.40;3.35;;;;;;;24.02;50.81;100521.59;5590740;31;34166;-69
2022/09/03 07:46:46;;;;;;;6.00;3.25;;;;;;;25.28;47.21;100527.47;5590072;31;32427;-69
2022/09/03 07:49:49;;;;;;;8.43;3.33;;;;;;;25.82;47.54;100527.28;5590645;31;34686;-69
2022/09/03 07:52:57;;;;;;;7.80;3.40;;;;;;;27.11;43.15;100531.72;5576999;31;33897;-70
2022/09/03 07:56:05;;;;;;;7.23;2.70;;;;;;;27.45;41.16;100532.75;5576894;31;33532;-70
2022/09/03 07:59:08;;;;;;;6.32;2.80;;;;;;;26.66;43.98;100533.31;5589824;31;32278;-70
2022/09/03 08:02:11;;;;;;;6.68;2.25;;;;;;;26.58;42.97;100535.72;5590767;31;34597;-71
2022/09/03 08:05:14;;;;;;;5.78;2.20;;;;;;;27.35;39.57;100540.16;5589502;31;33191;-70
2022/09/03 08:08:16;;;;;;;4.97;2.20;;;;;;;28.02;38.63;100543.28;5589607;31;34739;-70
2022/09/03 08:11:21;;;;;;;4.07;2.00;;;;;;;28.90;36.87;100534.34;5589680;31;33331;-70
2022/09/03 08:14:24;;;;;;;3.55;2.10;;;;;;;27.69;39.62;100541.22;5576293;31;32868;-69
2022/09/03 08:17:27;;;;;;;3.22;2.05;;;;;;;28.02;39.35;100537.00;5590489;31;33935;-67
2022/09/03 08:20:29;;;;;;;7.28;2.20;;;;;;;28.42;36.53;100536.00;5590330;31;34025;-69
2022/09/03 08:23:37;;;;;;;7.65;2.20;;;;;;;26.78;41.00;100535.75;5590828;31;34766;-69
2022/09/03 08:26:41;;;;;;;5.47;2.10;;;;;;;27.58;39.75;100540.41;5590417;31;33852;-69
2022/09/03 08:29:52;;;;;;;3.95;2.40;;;;;;;28.67;36.99;100532.28;5589030;31;32676;-70
2022/09/03 08:32:55;;;;;;;3.70;2.00;;;;;;;28.31;37.37;100528.97;5590430;31;34412;-69
2022/09/03 08:35:59;;;;;;;4.62;2.35;;;;;;;28.83;36.97;100531.13;5576459;31;34903;-70
2022/09/03 08:39:08;;;;;;;5.57;2.10;;;;;;;30.72;34.04;100526.81;5590074;31;34398;-69
2022/09/03 08:42:24;;;;;;;5.72;2.10;;;;;;;30.83;32.19;100533.78;5589408;31;34770;-69
2022/09/03 08:45:29;;;;;;;5.30;2.17;;;;;;;32.03;30.49;100540.09;5588955;31;34645;-70
2022/09/03 08:48:32;;;;;;;4.22;2.60;;;;;;;30.17;33.01;100531.94;5589229;31;32700;-68
2022/09/03 08:51:39;;;;;;;5.05;2.12;;;;;;;30.88;31.32;100530.12;5590549;31;34265;-70
2022/09/03 08:54:43;;;;;;;5.50;2.67;;;;;;;30.41;32.88;100525.59;5590102;31;33987;-69
2022/09/03 08:57:48;;;;;;;3.85;2.25;;;;;;;29.86;33.69;100524.41;5588802;31;33570;-69
2022/09/03 09:01:33;;;;;;;7.97;2.53;;;;;;;30.81;31.83;100530.50;5590362;31;34745;-69
2022/09/03 09:05:02;;;;;;;5.07;2.90;;;;;;;31.06;32.01;100523.84;5590115;31;33857;-69
2022/09/03 09:08:19;;;;;;;5.78;2.30;;;;;;;28.59;34.92;100522.81;5589888;31;35370;-70
2022/09/03 09:11:45;;;;;;;6.28;3.05;;;;;;;25.92;40.77;100513.75;5589963;31;35141;-69
2022/09/03 09:15:19;;;;;;;7.72;3.00;;;;;;;24.97;43.16;100507.44;5589673;31;33863;-69
2022/09/03 09:18:57;;;;;;;5.20;2.60;;;;;;;24.64;47.04;100503.03;5588987;31;32564;-69
2022/09/03 09:22:19;;;;;;;5.53;2.75;;;;;;;23.86;46.54;100506.22;5589204;31;33974;-69
2022/09/03 09:25:25;;;;;;;4.75;2.80;;;;;;;23.27;49.48;100496.97;5588808;31;32493;-69
2022/09/03 09:28:38;;;;;;;4.85;2.80;;;;;;;22.89;50.44;100503.97;5588693;31;34147;-69
2022/09/03 09:31:43;;;;;;;6.90;3.33;;;;;;;22.70;50.53;100488.19;5590049;31;33975;-67
2022/09/03 09:34:46;;;;;;;7.32;2.40;;;;;;;22.64;51.30;100497.28;5590066;31;34583;-68
2022/09/03 09:37:56;;;;;;;8.40;2.53;;;;;;;22.40;50.53;100499.28;5589430;31;33955;-66
2022/09/03 09:41:09;;;;;;;9.02;2.67;;;;;;;22.27;52.06;100503.06;5589303;31;34102;-68
2022/09/03 09:44:19;;;;;;;5.47;2.90;;;;;;;22.13;53.35;100496.31;5589411;31;33912;-68
2022/09/03 09:47:38;;;;;;;6.15;3.05;;;;;;;22.37;52.04;100497.03;5588776;31;35247;-67
2022/09/03 09:50:41;;;;;;;5.57;2.80;;;;;;;22.24;54.39;100491.94;5589054;31;34579;-69
2022/09/03 09:53:44;;;;;;;6.75;2.50;;;;;;;22.22;52.00;100491.37;5589567;31;34754;-68
2022/09/03 09:56:58;;;;;;;3.87;2.50;;;;;;;22.04;55.28;100489.66;5588163;31;34285;-68
2022/09/03 10:00:14;;;;;;;3.90;2.22;;;;;;;22.22;52.51;100496.78;5589665;31;34628;-69
2022/09/03 10:03:20;;;;;;;4.05;2.67;;;;;;;22.12;51.34;100491.16;5588291;31;32553;-69
2022/09/03 10:10:06;;;;;;;5.78;2.70;;;;;;;22.07;53.87;100492.69;5589623;31;34634;-68
2022/09/03 10:13:12;;;;;;;;;;;;;;;22.20;51.76;100498.88;5589645;31;34739;-69
2022/09/03 10:16:36;;;;;;;5.50;2.58;;;;;;;22.19;52.04;100498.06;5589291;31;34199;-68
2022/09/03 10:20:25;;;;;;;4.15;2.50;;;;;;;22.36;52.86;100498.94;5589462;31;34285;-68
2022/09/03 10:23:19;;;;;;;5.10;2.40;;;;;;;22.35;53.58;100483.78;5588663;31;32318;-67
2022/09/03 10:26:29;;;;;;;4.10;2.45;;;;;;;22.76;52.27;100484.50;5589293;31;34624;-68
2022/09/03 10:29:38;;;;;;;7.43;2.50;;;;;;;22.72;51.14;100497.72;5584730;31;138766;-67
2022/09/03 10:32:58;;;;;;;4.25;2.22;;;;;;;22.83;53.04;100490.59;5589383;31;34035;-68
2022/09/03 10:36:25;;;;;;;4.10;2.10;;;;;;;23.01;53.21;100484.94;5588296;31;33112;-68
2022/09/03 10:39:42;;;;;;;4.20;2.22;;;;;;;23.29;49.73;100486.69;5589327;31;34411;-68
2022/09/03 10:43:11;;;;;;;6.40;2.05;;;;;;;23.13;49.02;100491.09;5588416;31;32689;-68
2022/09/03 10:46:25;;;;;;;5.43;2.28;;;;;;;24.81;46.15;100474.97;5589270;31;34768;-68
2022/09/03 10:49:50;;;;;;;4.18;2.00;;;;;;;27.15;41.10;100491.97;5588656;31;33885;-70
2022/09/03 10:52:58;;;;;;;5.00;2.10;;;;;;;29.59;35.39;100482.03;5588683;31;34610;-69
2022/09/03 10:56:09;;;;;;;3.13;1.63;;;;;;;31.42;31.83;100480.13;5588180;31;33445;-69
2022/09/03 10:59:35;;;;;;;4.47;1.80;;;;;;;33.02;28.83;100484.28;5588841;31;34273;-69
2022/09/03 11:03:11;;;;;;;3.92;1.77;;;;;;;35.33;24.64;100480.28;5575518;31;33929;-70
2022/09/03 11:06:23;;;;;;;2.30;1.60;;;;;;;37.50;22.14;100473.50;5587117;31;32541;-68
2022/09/03 11:09:40;;;;;;;6.50;2.10;;;;;;;36.43;22.89;100466.16;5588564;31;33981;-69
2022/09/03 11:12:54;;;;;;;3.33;1.70;;;;;;;37.67;21.57;100465.00;5588746;31;33951;-70
2022/09/03 11:16:05;;;;;;;3.67;1.40;;;;;;;37.45;21.11;100470.97;5588689;31;34204;-69
2022/09/03 11:19:17;;;;;;;7.68;1.67;;;;;;;33.49;24.57;100461.56;5587820;31;32819;-70
2022/09/03 11:22:22;;;;;;;3.62;1.80;;;;;;;35.86;22.72;100462.34;5588618;31;34541;-71
2022/09/03 11:25:42;;;;;;;2.62;1.85;;;;;;;38.00;21.33;100467.66;5588598;31;34704;-70
2022/09/03 11:29:04;;;;;;;7.95;2.05;;;;;;;39.17;20.24;100457.09;5587342;31;33595;-71
2022/09/03 11:32:16;;;;;;;4.07;1.58;;;;;;;38.88;20.04;100460.28;5587962;31;32327;-70
2022/09/03 11:35:40;;;;;;;2.95;1.30;;;;;;;39.08;20.17;100468.38;5587750;31;32451;-71
2022/09/03 11:38:43;;;;;;;3.35;1.37;;;;;;;38.56;19.36;100465.75;5588376;31;33840;-71
2022/09/03 11:42:01;;;;;;;3.42;1.60;;;;;;;38.14;20.13;100459.75;5587551;31;32410;-70
2022/09/03 11:45:20;;;;;;;;;;;;;;;38.99;19.84;100458.63;5588545;31;33997;-70
2022/09/03 11:48:44;;;;;;;2.22;1.42;;;;;;;39.45;18.56;100463.41;5587537;31;34266;-70
2022/09/03 11:52:02;;;;;;;2.65;1.52;;;;;;;37.31;20.33;100462.19;5587475;31;33889;-71
2022/09/03 11:55:06;;;;;;;4.87;1.70;;;;;;;39.28;19.27;100460.94;5587986;31;33862;-71
2022/09/03 11:58:33;;;;;;;4.43;1.55;;;;;;;41.30;17.71;100470.87;5587397;31;33219;-69
2022/09/03 12:01:37;;;;;;;2.65;1.40;;;;;;;37.59;20.18;100462.34;5587396;31;32999;-70
2022/09/03 12:04:53;;;;;;;5.15;1.58;;;;;;;37.40;20.42;100466.47;5587142;31;32608;-69
2022/09/03 12:08:06;;;;;;;1.92;1.35;;;;;;;38.31;19.67;100466.16;5587060;31;33938;-70
2022/09/03 12:11:23;;;;;;;2.28;1.60;;;;;;;39.63;18.22;100466.59;5586850;31;33868;-70
2022/09/03 12:14:47;;;;;;;5.18;1.50;;;;;;;36.63;20.99;100463.75;5587660;31;33921;-70
2022/09/03 12:21:19;;;;;;;2.35;1.30;;;;;;;38.62;20.13;100456.03;5590505;31;35172;-66
2022/09/03 12:24:32;;;;;;;6.55;1.60;;;;;;;37.37;21.36;100449.75;5589392;31;34162;-69
2022/09/03 12:27:44;;;;;;;4.50;1.50;;;;;;;37.42;21.09;100457.84;5589428;31;33268;-69
2022/09/03 12:30:48;;;;;;;2.67;1.50;;;;;;;38.98;18.26;100443.13;5589478;31;32328;-69
2022/09/03 12:33:54;;;;;;;2.62;1.50;;;;;;;39.71;18.10;100459.22;5589369;31;32703;-70
2022/09/03 12:36:57;;;;;;;4.78;1.20;;;;;;;38.51;18.97;100437.47;5576705;31;33129;-69
2022/09/03 12:39:59;;;;;;;4.70;1.60;;;;;;;39.18;18.44;100444.84;5589835;31;33648;-69
2022/09/03 12:43:14;;;;;;;4.15;1.60;;;;;;;39.70;18.55;100438.97;5590225;31;33891;-69
2022/09/03 12:46:37;;;;;;;3.55;1.60;;;;;;;36.77;20.74;100444.91;5590423;31;33866;-69
2022/09/03 12:49:49;;;;;;;7.12;1.70;;;;;;;33.72;25.03;100432.03;5576714;31;33258;-69
2022/09/03 12:52:58;;;;;;;3.22;1.40;;;;;;;32.38;26.17;100434.22;5589428;31;33471;-69
2022/09/03 12:56:01;;;;;;;1.70;1.23;;;;;;;35.65;22.96;100437.44;5577136;31;33377;-69
2022/09/03 12:59:27;;;;;;;4.97;1.87;;;;;;;37.68;20.27;100427.84;5589598;31;33165;-69
2022/09/03 13:02:39;;;;;;;6.75;1.62;;;;;;;41.25;17.15;100434.22;5590181;31;33886;-69
2022/09/03 13:05:51;;;;;;;4.97;1.50;;;;;;;39.07;18.41;100433.47;5589475;31;32709;-69
2022/09/03 13:09:00;;;;;;;2.05;1.25;;;;;;;39.16;18.25;100432.50;5590129;31;34045;-70
2022/09/03 13:12:04;;;;;;;8.52;1.55;;;;;;;39.64;17.12;100432.12;5589455;31;32838;-70
2022/09/03 13:15:17;;;;;;;2.15;1.50;;;;;;;42.89;14.42;100439.66;5589479;31;33728;-68
2022/09/03 13:18:30;;;;;;;2.83;1.65;;;;;;;40.66;17.09;100439.12;5590057;31;33972;-69
2022/09/03 13:21:42;;;;;;;5.10;1.20;;;;;;;38.32;18.85;100431.75;5590010;31;33885;-69
2022/09/03 13:25:11;;;;;;;2.47;1.40;;;;;;;37.69;20.33;100420.34;5589231;31;33079;-69
2022/09/03 13:28:49;;;;;;;3.50;1.30;;;;;;;36.48;21.28;100421.75;5589784;31;34103;-68
2022/09/03 13:31:58;;;;;;;5.60;1.60;;;;;;;32.20;26.05;100413.22;5588339;31;34036;-68
2022/09/03 13:35:28;;;;;;;2.55;1.40;;;;;;;29.11;30.79;100401.94;5589555;31;35180;-68
2022/09/03 13:39:07;;;;;;;2.67;1.70;;;;;;;28.12;32.09;100397.06;5589600;31;33986;-69
2022/09/03 13:42:17;;;;;;;4.50;1.45;;;;;;;30.52;30.15;100399.25;5589224;31;33162;-69
2022/09/03 13:45:38;;;;;;;3.03;1.42;;;;;;;33.86;24.80;100401.62;5590120;31;34091;-68
2022/09/03 13:52:29;;;;;;;2.97;1.73;;;;;;;33.84;25.13;100398.41;5589804;31;33903;-69
2022/09/03 13:55:48;;;;;;;1.83;1.20;;;;;;;36.88;21.50;100402.66;5589359;31;34107;-68
2022/09/03 13:59:22;;;;;;;2.03;1.33;;;;;;;38.88;18.95;100407.59;5589112;31;32454;-67
2022/09/03 14:02:31;;;;;;;3.15;1.40;;;;;;;39.62;18.35;100403.88;5589505;31;34226;-68
2022/09/03 14:05:42;;;;;;;4.30;1.27;;;;;;;39.89;17.58;100410.47;5589488;31;33977;-68
2022/09/03 14:09:23;;;;;;;1.52;1.10;;;;;;;39.93;16.92;100409.38;5589542;31;33947;-68
2022/09/03 14:12:45;;;;;;;2.40;1.12;;;;;;;37.90;19.79;100403.59;5589405;31;33948;-69
2022/09/03 14:15:51;;;;;;;3.53;1.10;;;;;;;34.72;22.28;100396.91;5588904;31;34099;-70
2022/09/03 14:19:00;;;;;;;1.77;1.27;;;;;;;31.56;26.70;100384.16;5588604;31;33170;-70
2022/09/03 14:22:20;;;;;;;2.75;1.30;;;;;;;29.65;28.13;100378.91;5589304;31;33907;-69
2022/09/03 14:25:27;;;;;;;8.30;1.20;;;;;;;29.43;28.92;100379.47;5588490;31;33587;-69
2022/09/03 14:28:36;;;;;;;3.58;1.33;;;;;;;28.73;30.79;100373.66;5588953;31;34080;-70
2022/09/03 14:31:44;;;;;;;;;;;;;;;27.73;32.89;100376.00;5588916;31;33334;-69
2022/09/03 14:35:13;;;;;;;6.07;1.20;;;;;;;27.50;32.78;100379.34;5588671;31;34247;-69
2022/09/03 14:38:19;;;;;;;4.70;1.58;;;;;;;26.98;33.51;100372.44;5587030;31;34317;-69
2022/09/03 14:41:42;;;;;;;3.97;1.33;;;;;;;26.36;36.73;100364.59;5588804;31;34000;-68
2022/09/03 14:44:54;;;;;;;2.47;1.55;;;;;;;26.32;35.41;100369.75;5587904;31;32692;-69
2022/09/03 14:48:21;;;;;;;2.45;1.33;;;;;;;26.24;35.60;100367.56;5588090;31;33602;-68
2022/09/03 14:51:49;;;;;;;3.00;1.17;;;;;;;25.96;36.30;100368.03;5588982;31;34249;-69